sensor_id;sensor_type;location;lat;lon;timestamp;P1;durP1;ratioP1;P2;durP2;ratioP2
23338;SDS011;11841;49.368;20.962;2023-10-19T00:00:49;9.95;;;4.95;;
23338;SDS011;11841;49.368;20.962;2023-10-19T00:03:35;5.05;;;3.47;;
23338;SDS011;11841;49.368;20.962;2023-10-19T00:06:21;6.95;;;3.28;;
23338;SDS011;11841;49.368;20.962;2023-10-19T00:09:08;7.05;;;3.20;;
23338;SDS011;11841;49.368;20.962;2023-10-19T00:11:56;5.40;;;2.70;;
23338;SDS011;11841;49.368;20.962;2023-10-19T00:14:42;5.72;;;3.30;;
23338;SDS011;11841;49.368;20.962;2023-10-19T00:17:28;13.68;;;4.38;;
23338;SDS011;11841;49.368;20.962;2023-10-19T00:20:14;10.88;;;4.30;;
23338;SDS011;11841;49.368;20.962;2023-10-19T00:23:19;7.40;;;4.15;;
23338;SDS011;11841;49.368;20.962;2023-10-19T00:26:16;7.72;;;4.40;;
23338;SDS011;11841;49.368;20.962;2023-10-19T00:29:05;10.98;;;6.15;;
23338;SDS011;11841;49.368;20.962;2023-10-19T00:32:10;7.70;;;4.95;;
23338;SDS011;11841;49.368;20.962;2023-10-19T00:37:54;7.97;;;4.68;;
23338;SDS011;11841;49.368;20.962;2023-10-19T00:40:51;11.40;;;4.20;;
23338;SDS011;11841;49.368;20.962;2023-10-19T00:43:39;11.55;;;5.10;;
23338;SDS011;11841;49.368;20.962;2023-10-19T00:46:29;9.07;;;4.35;;
23338;SDS011;11841;49.368;20.962;2023-10-19T00:49:18;7.30;;;4.10;;
23338;SDS011;11841;49.368;20.962;2023-10-19T00:52:08;10.10;;;4.55;;
23338;SDS011;11841;49.368;20.962;2023-10-19T00:54:56;21.92;;;8.25;;
23338;SDS011;11841;49.368;20.962;2023-10-19T00:57:43;12.57;;;6.05;;
23338;SDS011;11841;49.368;20.962;2023-10-19T01:00:33;8.70;;;3.92;;
23338;SDS011;11841;49.368;20.962;2023-10-19T01:03:19;11.00;;;5.53;;
23338;SDS011;11841;49.368;20.962;2023-10-19T01:06:05;6.68;;;4.32;;
23338;SDS011;11841;49.368;20.962;2023-10-19T01:08:54;5.53;;;3.67;;
23338;SDS011;11841;49.368;20.962;2023-10-19T01:11:41;6.72;;;3.95;;
23338;SDS011;11841;49.368;20.962;2023-10-19T01:14:31;8.95;;;4.10;;
23338;SDS011;11841;49.368;20.962;2023-10-19T01:17:17;6.63;;;3.80;;
23338;SDS011;11841;49.368;20.962;2023-10-19T01:20:03;10.05;;;4.90;;
23338;SDS011;11841;49.368;20.962;2023-10-19T01:23:01;6.75;;;4.40;;
23338;SDS011;11841;49.368;20.962;2023-10-19T01:25:55;8.02;;;4.68;;
23338;SDS011;11841;49.368;20.962;2023-10-19T01:28:41;8.68;;;4.50;;
23338;SDS011;11841;49.368;20.962;2023-10-19T01:31:27;6.18;;;3.95;;
23338;SDS011;11841;49.368;20.962;2023-10-19T01:34:13;8.13;;;4.10;;
23338;SDS011;11841;49.368;20.962;2023-10-19T01:37:00;5.53;;;3.80;;
23338;SDS011;11841;49.368;20.962;2023-10-19T01:39:51;10.57;;;4.47;;
23338;SDS011;11841;49.368;20.962;2023-10-19T01:42:37;8.05;;;4.00;;
23338;SDS011;11841;49.368;20.962;2023-10-19T01:45:22;7.75;;;4.72;;
23338;SDS011;11841;49.368;20.962;2023-10-19T01:48:08;7.68;;;4.90;;
23338;SDS011;11841;49.368;20.962;2023-10-19T01:50:53;6.47;;;4.13;;
23338;SDS011;11841;49.368;20.962;2023-10-19T01:53:39;6.85;;;4.03;;
23338;SDS011;11841;49.368;20.962;2023-10-19T01:56:29;7.15;;;4.38;;
23338;SDS011;11841;49.368;20.962;2023-10-19T01:59:15;5.68;;;3.95;;
23338;SDS011;11841;49.368;20.962;2023-10-19T02:02:01;8.77;;;4.53;;
23338;SDS011;11841;49.368;20.962;2023-10-19T02:04:47;13.18;;;4.57;;
23338;SDS011;11841;49.368;20.962;2023-10-19T02:07:35;7.70;;;4.22;;
23338;SDS011;11841;49.368;20.962;2023-10-19T02:10:21;13.23;;;4.63;;
23338;SDS011;11841;49.368;20.962;2023-10-19T02:13:07;6.88;;;4.40;;
23338;SDS011;11841;49.368;20.962;2023-10-19T02:15:53;11.07;;;4.78;;
23338;SDS011;11841;49.368;20.962;2023-10-19T02:18:38;7.10;;;4.57;;
23338;SDS011;11841;49.368;20.962;2023-10-19T02:21:25;7.97;;;4.63;;
23338;SDS011;11841;49.368;20.962;2023-10-19T02:24:17;8.25;;;4.38;;
23338;SDS011;11841;49.368;20.962;2023-10-19T02:27:02;7.47;;;5.15;;
23338;SDS011;11841;49.368;20.962;2023-10-19T02:29:49;10.13;;;4.57;;
23338;SDS011;11841;49.368;20.962;2023-10-19T02:32:35;10.20;;;4.75;;
23338;SDS011;11841;49.368;20.962;2023-10-19T02:35:20;8.82;;;5.15;;
23338;SDS011;11841;49.368;20.962;2023-10-19T02:38:06;34.08;;;7.50;;
23338;SDS011;11841;49.368;20.962;2023-10-19T02:40:51;9.00;;;5.53;;
23338;SDS011;11841;49.368;20.962;2023-10-19T02:43:37;7.35;;;5.00;;
23338;SDS011;11841;49.368;20.962;2023-10-19T02:46:23;9.68;;;5.63;;
23338;SDS011;11841;49.368;20.962;2023-10-19T02:49:09;12.00;;;4.70;;
23338;SDS011;11841;49.368;20.962;2023-10-19T02:52:00;8.43;;;6.00;;
23338;SDS011;11841;49.368;20.962;2023-10-19T02:54:49;10.43;;;6.28;;
23338;SDS011;11841;49.368;20.962;2023-10-19T02:57:35;13.57;;;5.18;;
23338;SDS011;11841;49.368;20.962;2023-10-19T03:00:22;20.47;;;6.30;;
23338;SDS011;11841;49.368;20.962;2023-10-19T03:03:13;11.35;;;5.82;;
23338;SDS011;11841;49.368;20.962;2023-10-19T03:08:49;14.85;;;5.95;;
23338;SDS011;11841;49.368;20.962;2023-10-19T03:11:45;16.70;;;6.30;;
23338;SDS011;11841;49.368;20.962;2023-10-19T03:14:31;13.40;;;6.43;;
23338;SDS011;11841;49.368;20.962;2023-10-19T03:17:18;10.43;;;6.55;;
23338;SDS011;11841;49.368;20.962;2023-10-19T03:20:03;9.38;;;5.60;;
23338;SDS011;11841;49.368;20.962;2023-10-19T03:22:51;9.27;;;5.93;;
23338;SDS011;11841;49.368;20.962;2023-10-19T03:25:36;9.13;;;5.68;;
23338;SDS011;11841;49.368;20.962;2023-10-19T03:28:54;12.05;;;6.13;;
23338;SDS011;11841;49.368;20.962;2023-10-19T03:31:46;14.70;;;6.70;;
23338;SDS011;11841;49.368;20.962;2023-10-19T03:34:32;14.70;;;7.45;;
23338;SDS011;11841;49.368;20.962;2023-10-19T03:37:23;16.98;;;7.45;;
23338;SDS011;11841;49.368;20.962;2023-10-19T03:40:10;14.18;;;6.63;;
23338;SDS011;11841;49.368;20.962;2023-10-19T03:43:00;19.90;;;8.00;;
23338;SDS011;11841;49.368;20.962;2023-10-19T03:45:50;17.10;;;7.68;;
23338;SDS011;11841;49.368;20.962;2023-10-19T03:48:37;13.82;;;7.07;;
23338;SDS011;11841;49.368;20.962;2023-10-19T03:51:24;10.43;;;7.03;;
23338;SDS011;11841;49.368;20.962;2023-10-19T03:54:11;13.00;;;6.68;;
23338;SDS011;11841;49.368;20.962;2023-10-19T03:57:22;18.52;;;8.85;;
23338;SDS011;11841;49.368;20.962;2023-10-19T04:00:09;10.90;;;6.95;;
23338;SDS011;11841;49.368;20.962;2023-10-19T04:02:55;11.90;;;7.40;;
23338;SDS011;11841;49.368;20.962;2023-10-19T04:05:44;12.98;;;7.63;;
23338;SDS011;11841;49.368;20.962;2023-10-19T04:08:31;17.77;;;7.63;;
23338;SDS011;11841;49.368;20.962;2023-10-19T04:11:22;10.48;;;6.90;;
23338;SDS011;11841;49.368;20.962;2023-10-19T04:14:07;10.35;;;6.60;;
23338;SDS011;11841;49.368;20.962;2023-10-19T04:16:54;12.85;;;7.32;;
23338;SDS011;11841;49.368;20.962;2023-10-19T04:19:41;149.40;;;18.10;;
23338;SDS011;11841;49.368;20.962;2023-10-19T04:22:26;18.85;;;7.80;;
23338;SDS011;11841;49.368;20.962;2023-10-19T04:25:15;13.23;;;7.93;;
23338;SDS011;11841;49.368;20.962;2023-10-19T04:28:02;18.10;;;8.52;;
23338;SDS011;11841;49.368;20.962;2023-10-19T04:30:48;14.15;;;8.13;;
23338;SDS011;11841;49.368;20.962;2023-10-19T04:33:33;13.52;;;7.68;;
23338;SDS011;11841;49.368;20.962;2023-10-19T04:36:19;15.52;;;8.48;;
23338;SDS011;11841;49.368;20.962;2023-10-19T04:39:06;15.32;;;9.07;;
23338;SDS011;11841;49.368;20.962;2023-10-19T04:41:56;17.02;;;8.27;;
23338;SDS011;11841;49.368;20.962;2023-10-19T04:44:42;15.70;;;7.90;;
23338;SDS011;11841;49.368;20.962;2023-10-19T04:47:27;16.05;;;7.90;;
23338;SDS011;11841;49.368;20.962;2023-10-19T04:50:13;12.43;;;6.95;;
23338;SDS011;11841;49.368;20.962;2023-10-19T04:52:58;14.10;;;7.35;;
23338;SDS011;11841;49.368;20.962;2023-10-19T04:55:45;13.32;;;7.88;;
23338;SDS011;11841;49.368;20.962;2023-10-19T04:58:31;13.80;;;7.22;;
23338;SDS011;11841;49.368;20.962;2023-10-19T05:01:16;14.20;;;7.65;;
23338;SDS011;11841;49.368;20.962;2023-10-19T05:04:01;16.05;;;7.57;;
23338;SDS011;11841;49.368;20.962;2023-10-19T05:06:47;10.15;;;6.97;;
23338;SDS011;11841;49.368;20.962;2023-10-19T05:09:32;13.25;;;6.47;;
23338;SDS011;11841;49.368;20.962;2023-10-19T05:12:17;15.50;;;7.15;;
23338;SDS011;11841;49.368;20.962;2023-10-19T05:15:03;14.15;;;7.78;;
23338;SDS011;11841;49.368;20.962;2023-10-19T05:17:50;12.95;;;7.18;;
23338;SDS011;11841;49.368;20.962;2023-10-19T05:20:36;12.32;;;6.22;;
23338;SDS011;11841;49.368;20.962;2023-10-19T05:23:25;13.23;;;6.75;;
23338;SDS011;11841;49.368;20.962;2023-10-19T05:26:12;11.82;;;6.28;;
23338;SDS011;11841;49.368;20.962;2023-10-19T05:28:59;13.88;;;7.90;;
23338;SDS011;11841;49.368;20.962;2023-10-19T05:31:45;10.45;;;6.75;;
23338;SDS011;11841;49.368;20.962;2023-10-19T05:34:31;12.63;;;7.10;;
23338;SDS011;11841;49.368;20.962;2023-10-19T05:37:20;9.77;;;6.53;;
23338;SDS011;11841;49.368;20.962;2023-10-19T05:40:05;10.75;;;6.38;;
23338;SDS011;11841;49.368;20.962;2023-10-19T05:42:57;14.25;;;6.60;;
23338;SDS011;11841;49.368;20.962;2023-10-19T05:45:43;11.27;;;6.75;;
23338;SDS011;11841;49.368;20.962;2023-10-19T05:48:28;12.82;;;7.93;;
23338;SDS011;11841;49.368;20.962;2023-10-19T05:51:14;14.38;;;7.07;;
23338;SDS011;11841;49.368;20.962;2023-10-19T05:53:59;20.63;;;7.28;;
23338;SDS011;11841;49.368;20.962;2023-10-19T05:56:48;14.30;;;7.68;;
23338;SDS011;11841;49.368;20.962;2023-10-19T05:59:34;13.35;;;6.95;;
23338;SDS011;11841;49.368;20.962;2023-10-19T06:02:19;16.77;;;8.13;;
23338;SDS011;11841;49.368;20.962;2023-10-19T06:05:17;14.10;;;7.75;;
23338;SDS011;11841;49.368;20.962;2023-10-19T06:08:03;18.48;;;8.50;;
23338;SDS011;11841;49.368;20.962;2023-10-19T06:10:52;15.25;;;7.13;;
23338;SDS011;11841;49.368;20.962;2023-10-19T06:13:38;12.13;;;6.85;;
23338;SDS011;11841;49.368;20.962;2023-10-19T06:16:23;9.60;;;6.50;;
23338;SDS011;11841;49.368;20.962;2023-10-19T06:19:09;14.68;;;6.93;;
23338;SDS011;11841;49.368;20.962;2023-10-19T06:21:54;10.85;;;6.82;;
23338;SDS011;11841;49.368;20.962;2023-10-19T06:24:40;11.18;;;6.90;;
23338;SDS011;11841;49.368;20.962;2023-10-19T06:27:25;12.00;;;6.97;;
23338;SDS011;11841;49.368;20.962;2023-10-19T06:30:11;12.55;;;6.57;;
23338;SDS011;11841;49.368;20.962;2023-10-19T06:32:56;11.45;;;6.65;;
23338;SDS011;11841;49.368;20.962;2023-10-19T06:35:46;14.88;;;7.30;;
23338;SDS011;11841;49.368;20.962;2023-10-19T06:38:31;14.18;;;7.30;;
23338;SDS011;11841;49.368;20.962;2023-10-19T06:41:16;11.32;;;6.93;;
23338;SDS011;11841;49.368;20.962;2023-10-19T06:44:03;12.25;;;6.95;;
23338;SDS011;11841;49.368;20.962;2023-10-19T06:46:49;11.50;;;7.07;;
23338;SDS011;11841;49.368;20.962;2023-10-19T06:49:35;14.30;;;7.28;;
23338;SDS011;11841;49.368;20.962;2023-10-19T06:52:20;15.15;;;8.05;;
23338;SDS011;11841;49.368;20.962;2023-10-19T06:55:06;11.30;;;7.03;;
23338;SDS011;11841;49.368;20.962;2023-10-19T06:57:58;11.65;;;7.18;;
23338;SDS011;11841;49.368;20.962;2023-10-19T07:00:44;13.40;;;6.65;;
23338;SDS011;11841;49.368;20.962;2023-10-19T07:03:32;11.50;;;7.05;;
23338;SDS011;11841;49.368;20.962;2023-10-19T07:06:18;12.23;;;6.82;;
23338;SDS011;11841;49.368;20.962;2023-10-19T07:09:03;19.73;;;7.30;;
23338;SDS011;11841;49.368;20.962;2023-10-19T07:11:50;13.20;;;7.65;;
23338;SDS011;11841;49.368;20.962;2023-10-19T07:14:38;14.57;;;7.68;;
23338;SDS011;11841;49.368;20.962;2023-10-19T07:17:26;22.50;;;9.18;;
23338;SDS011;11841;49.368;20.962;2023-10-19T07:20:12;15.95;;;8.50;;
23338;SDS011;11841;49.368;20.962;2023-10-19T07:23:19;14.32;;;6.88;;
23338;SDS011;11841;49.368;20.962;2023-10-19T07:26:06;15.10;;;7.95;;
23338;SDS011;11841;49.368;20.962;2023-10-19T07:28:52;12.35;;;6.68;;
23338;SDS011;11841;49.368;20.962;2023-10-19T07:31:38;11.65;;;6.85;;
23338;SDS011;11841;49.368;20.962;2023-10-19T07:34:24;13.80;;;8.15;;
23338;SDS011;11841;49.368;20.962;2023-10-19T07:37:12;11.30;;;6.82;;
23338;SDS011;11841;49.368;20.962;2023-10-19T07:40:00;11.27;;;6.60;;
23338;SDS011;11841;49.368;20.962;2023-10-19T07:42:45;13.98;;;7.90;;
23338;SDS011;11841;49.368;20.962;2023-10-19T07:45:31;10.50;;;7.57;;
23338;SDS011;11841;49.368;20.962;2023-10-19T07:48:17;19.00;;;8.55;;
23338;SDS011;11841;49.368;20.962;2023-10-19T07:51:02;12.13;;;7.53;;
23338;SDS011;11841;49.368;20.962;2023-10-19T07:53:48;16.75;;;7.97;;
23338;SDS011;11841;49.368;20.962;2023-10-19T07:56:33;13.85;;;7.55;;
23338;SDS011;11841;49.368;20.962;2023-10-19T07:59:19;14.00;;;8.30;;
23338;SDS011;11841;49.368;20.962;2023-10-19T08:02:04;15.20;;;8.40;;
23338;SDS011;11841;49.368;20.962;2023-10-19T08:04:51;16.95;;;8.13;;
23338;SDS011;11841;49.368;20.962;2023-10-19T08:07:38;13.57;;;7.53;;
23338;SDS011;11841;49.368;20.962;2023-10-19T08:10:25;15.05;;;7.65;;
23338;SDS011;11841;49.368;20.962;2023-10-19T08:13:12;14.27;;;7.45;;
23338;SDS011;11841;49.368;20.962;2023-10-19T08:15:57;13.60;;;7.45;;
23338;SDS011;11841;49.368;20.962;2023-10-19T08:18:43;16.60;;;8.52;;
23338;SDS011;11841;49.368;20.962;2023-10-19T08:21:28;13.82;;;8.15;;
23338;SDS011;11841;49.368;20.962;2023-10-19T08:24:14;16.80;;;8.15;;
23338;SDS011;11841;49.368;20.962;2023-10-19T08:27:02;21.35;;;8.40;;
23338;SDS011;11841;49.368;20.962;2023-10-19T08:29:50;17.35;;;8.68;;
23338;SDS011;11841;49.368;20.962;2023-10-19T08:32:36;12.85;;;7.72;;
23338;SDS011;11841;49.368;20.962;2023-10-19T08:35:21;20.38;;;8.10;;
23338;SDS011;11841;49.368;20.962;2023-10-19T08:38:11;12.05;;;7.10;;
23338;SDS011;11841;49.368;20.962;2023-10-19T08:40:56;15.75;;;8.52;;
23338;SDS011;11841;49.368;20.962;2023-10-19T08:43:42;14.25;;;8.05;;
23338;SDS011;11841;49.368;20.962;2023-10-19T08:46:27;11.43;;;7.85;;
23338;SDS011;11841;49.368;20.962;2023-10-19T08:49:13;10.07;;;6.47;;
23338;SDS011;11841;49.368;20.962;2023-10-19T08:52:00;13.90;;;7.05;;
23338;SDS011;11841;49.368;20.962;2023-10-19T08:54:48;13.23;;;7.93;;
23338;SDS011;11841;49.368;20.962;2023-10-19T08:57:34;11.13;;;6.95;;
23338;SDS011;11841;49.368;20.962;2023-10-19T09:00:20;13.95;;;7.93;;
23338;SDS011;11841;49.368;20.962;2023-10-19T09:06:02;13.50;;;7.28;;
23338;SDS011;11841;49.368;20.962;2023-10-19T09:08:50;12.18;;;7.18;;
23338;SDS011;11841;49.368;20.962;2023-10-19T09:11:36;14.98;;;6.82;;
23338;SDS011;11841;49.368;20.962;2023-10-19T09:14:32;15.73;;;7.82;;
23338;SDS011;11841;49.368;20.962;2023-10-19T09:17:28;16.92;;;8.05;;
23338;SDS011;11841;49.368;20.962;2023-10-19T09:20:15;14.23;;;7.85;;
23338;SDS011;11841;49.368;20.962;2023-10-19T09:23:11;17.38;;;8.60;;
23338;SDS011;11841;49.368;20.962;2023-10-19T09:25:58;14.95;;;8.43;;
23338;SDS011;11841;49.368;20.962;2023-10-19T09:28:49;14.73;;;8.05;;
23338;SDS011;11841;49.368;20.962;2023-10-19T09:31:35;14.50;;;7.22;;
23338;SDS011;11841;49.368;20.962;2023-10-19T09:34:21;15.27;;;8.13;;
23338;SDS011;11841;49.368;20.962;2023-10-19T09:37:08;15.23;;;7.45;;
23338;SDS011;11841;49.368;20.962;2023-10-19T09:39:54;11.18;;;7.40;;
23338;SDS011;11841;49.368;20.962;2023-10-19T09:42:40;13.98;;;7.45;;
23338;SDS011;11841;49.368;20.962;2023-10-19T09:45:31;11.15;;;6.07;;
23338;SDS011;11841;49.368;20.962;2023-10-19T09:48:22;10.70;;;6.50;;
23338;SDS011;11841;49.368;20.962;2023-10-19T09:51:08;14.23;;;7.32;;
23338;SDS011;11841;49.368;20.962;2023-10-19T09:54:05;10.05;;;6.53;;
23338;SDS011;11841;49.368;20.962;2023-10-19T09:57:00;10.15;;;6.43;;
23338;SDS011;11841;49.368;20.962;2023-10-19T09:59:51;13.52;;;6.40;;
23338;SDS011;11841;49.368;20.962;2023-10-19T10:02:43;13.02;;;6.50;;
23338;SDS011;11841;49.368;20.962;2023-10-19T10:08:29;13.88;;;6.28;;
23338;SDS011;11841;49.368;20.962;2023-10-19T10:11:34;9.65;;;6.57;;
23338;SDS011;11841;49.368;20.962;2023-10-19T10:14:20;11.27;;;6.20;;
23338;SDS011;11841;49.368;20.962;2023-10-19T10:17:16;11.68;;;5.93;;
23338;SDS011;11841;49.368;20.962;2023-10-19T10:23:16;8.80;;;5.80;;
23338;SDS011;11841;49.368;20.962;2023-10-19T10:26:02;11.45;;;5.32;;
23338;SDS011;11841;49.368;20.962;2023-10-19T10:31:52;6.65;;;5.05;;
23338;SDS011;11841;49.368;20.962;2023-10-19T10:37:23;5.75;;;4.45;;
23338;SDS011;11841;49.368;20.962;2023-10-19T10:40:08;6.30;;;4.00;;
23338;SDS011;11841;49.368;20.962;2023-10-19T10:43:06;5.03;;;3.97;;
23338;SDS011;11841;49.368;20.962;2023-10-19T10:45:51;8.80;;;3.40;;
23338;SDS011;11841;49.368;20.962;2023-10-19T10:48:40;3.95;;;3.38;;
23338;SDS011;11841;49.368;20.962;2023-10-19T10:51:27;8.07;;;4.53;;
23338;SDS011;11841;49.368;20.962;2023-10-19T10:54:16;5.78;;;3.90;;
23338;SDS011;11841;49.368;20.962;2023-10-19T10:57:06;5.35;;;4.55;;
23338;SDS011;11841;49.368;20.962;2023-10-19T11:03:03;8.30;;;4.80;;
23338;SDS011;11841;49.368;20.962;2023-10-19T11:05:52;11.15;;;5.53;;
23338;SDS011;11841;49.368;20.962;2023-10-19T11:08:37;6.30;;;4.32;;
23338;SDS011;11841;49.368;20.962;2023-10-19T11:11:23;6.07;;;4.00;;
23338;SDS011;11841;49.368;20.962;2023-10-19T11:14:09;5.95;;;4.20;;
23338;SDS011;11841;49.368;20.962;2023-10-19T11:16:56;9.25;;;4.38;;
23338;SDS011;11841;49.368;20.962;2023-10-19T11:19:57;6.07;;;4.20;;
23338;SDS011;11841;49.368;20.962;2023-10-19T11:22:47;6.97;;;4.15;;
23338;SDS011;11841;49.368;20.962;2023-10-19T11:25:35;8.25;;;4.32;;
23338;SDS011;11841;49.368;20.962;2023-10-19T11:28:20;6.05;;;4.18;;
23338;SDS011;11841;49.368;20.962;2023-10-19T11:31:16;8.88;;;4.45;;
23338;SDS011;11841;49.368;20.962;2023-10-19T11:34:08;7.03;;;4.03;;
23338;SDS011;11841;49.368;20.962;2023-10-19T11:36:57;6.63;;;3.83;;
23338;SDS011;11841;49.368;20.962;2023-10-19T11:39:45;5.30;;;3.33;;
23338;SDS011;11841;49.368;20.962;2023-10-19T11:42:30;5.68;;;3.63;;
23338;SDS011;11841;49.368;20.962;2023-10-19T11:45:16;4.32;;;2.92;;
23338;SDS011;11841;49.368;20.962;2023-10-19T11:48:02;5.22;;;3.33;;
23338;SDS011;11841;49.368;20.962;2023-10-19T11:50:47;6.28;;;3.63;;
23338;SDS011;11841;49.368;20.962;2023-10-19T11:53:33;6.43;;;3.78;;
23338;SDS011;11841;49.368;20.962;2023-10-19T11:56:19;5.15;;;4.22;;
23338;SDS011;11841;49.368;20.962;2023-10-19T11:59:05;5.30;;;3.30;;
23338;SDS011;11841;49.368;20.962;2023-10-19T12:01:52;5.05;;;3.17;;
23338;SDS011;11841;49.368;20.962;2023-10-19T12:04:39;6.03;;;3.30;;
23338;SDS011;11841;49.368;20.962;2023-10-19T12:07:24;4.05;;;3.53;;
23338;SDS011;11841;49.368;20.962;2023-10-19T12:10:10;6.47;;;3.40;;
23338;SDS011;11841;49.368;20.962;2023-10-19T12:12:57;3.33;;;3.03;;
23338;SDS011;11841;49.368;20.962;2023-10-19T12:15:46;5.47;;;3.38;;
23338;SDS011;11841;49.368;20.962;2023-10-19T12:18:36;4.80;;;3.70;;
23338;SDS011;11841;49.368;20.962;2023-10-19T12:21:21;7.35;;;4.28;;
23338;SDS011;11841;49.368;20.962;2023-10-19T12:24:12;7.35;;;4.00;;
23338;SDS011;11841;49.368;20.962;2023-10-19T12:27:00;6.97;;;4.47;;
23338;SDS011;11841;49.368;20.962;2023-10-19T12:29:45;14.88;;;7.80;;
23338;SDS011;11841;49.368;20.962;2023-10-19T12:32:30;11.35;;;7.30;;
23338;SDS011;11841;49.368;20.962;2023-10-19T12:35:16;16.02;;;7.47;;
23338;SDS011;11841;49.368;20.962;2023-10-19T12:38:04;14.18;;;8.10;;
23338;SDS011;11841;49.368;20.962;2023-10-19T12:40:51;19.45;;;9.80;;
23338;SDS011;11841;49.368;20.962;2023-10-19T12:43:37;18.58;;;9.25;;
23338;SDS011;11841;49.368;20.962;2023-10-19T12:46:23;31.58;;;13.05;;
23338;SDS011;11841;49.368;20.962;2023-10-19T12:49:14;32.78;;;15.65;;
23338;SDS011;11841;49.368;20.962;2023-10-19T12:52:03;41.40;;;17.40;;
23338;SDS011;11841;49.368;20.962;2023-10-19T12:54:48;26.95;;;13.00;;
23338;SDS011;11841;49.368;20.962;2023-10-19T12:57:36;16.27;;;7.82;;
23338;SDS011;11841;49.368;20.962;2023-10-19T13:00:21;23.90;;;10.63;;
23338;SDS011;11841;49.368;20.962;2023-10-19T13:03:21;11.98;;;6.72;;
23338;SDS011;11841;49.368;20.962;2023-10-19T13:06:06;15.10;;;7.30;;
23338;SDS011;11841;49.368;20.962;2023-10-19T13:08:55;27.30;;;13.07;;
23338;SDS011;11841;49.368;20.962;2023-10-19T13:11:41;20.85;;;9.98;;
23338;SDS011;11841;49.368;20.962;2023-10-19T13:14:29;19.65;;;10.32;;
23338;SDS011;11841;49.368;20.962;2023-10-19T13:17:14;26.00;;;12.50;;
23338;SDS011;11841;49.368;20.962;2023-10-19T13:20:00;39.72;;;18.65;;
23338;SDS011;11841;49.368;20.962;2023-10-19T13:22:52;55.92;;;26.35;;
23338;SDS011;11841;49.368;20.962;2023-10-19T13:25:38;44.13;;;20.70;;
23338;SDS011;11841;49.368;20.962;2023-10-19T13:28:24;34.30;;;16.00;;
23338;SDS011;11841;49.368;20.962;2023-10-19T13:31:12;39.28;;;17.85;;
23338;SDS011;11841;49.368;20.962;2023-10-19T13:34:01;38.50;;;17.80;;
23338;SDS011;11841;49.368;20.962;2023-10-19T13:36:48;12.65;;;7.63;;
23338;SDS011;11841;49.368;20.962;2023-10-19T13:39:34;10.93;;;6.90;;
23338;SDS011;11841;49.368;20.962;2023-10-19T13:42:20;14.45;;;7.15;;
23338;SDS011;11841;49.368;20.962;2023-10-19T13:45:05;16.75;;;10.07;;
23338;SDS011;11841;49.368;20.962;2023-10-19T13:47:51;17.98;;;10.13;;
23338;SDS011;11841;49.368;20.962;2023-10-19T13:50:43;11.20;;;7.80;;
23338;SDS011;11841;49.368;20.962;2023-10-19T13:53:33;12.18;;;7.78;;
23338;SDS011;11841;49.368;20.962;2023-10-19T13:56:19;7.50;;;5.30;;
23338;SDS011;11841;49.368;20.962;2023-10-19T13:59:05;12.63;;;5.70;;
23338;SDS011;11841;49.368;20.962;2023-10-19T14:01:50;6.97;;;5.05;;
23338;SDS011;11841;49.368;20.962;2023-10-19T14:04:36;12.05;;;5.85;;
23338;SDS011;11841;49.368;20.962;2023-10-19T14:07:21;10.15;;;6.20;;
23338;SDS011;11841;49.368;20.962;2023-10-19T14:10:07;10.25;;;5.65;;
23338;SDS011;11841;49.368;20.962;2023-10-19T14:12:57;11.43;;;5.93;;
23338;SDS011;11841;49.368;20.962;2023-10-19T14:15:42;8.68;;;5.15;;
23338;SDS011;11841;49.368;20.962;2023-10-19T14:18:28;7.53;;;5.47;;
23338;SDS011;11841;49.368;20.962;2023-10-19T14:21:14;8.90;;;5.00;;
23338;SDS011;11841;49.368;20.962;2023-10-19T14:24:00;8.73;;;5.72;;
23338;SDS011;11841;49.368;20.962;2023-10-19T14:26:46;6.45;;;5.72;;
23338;SDS011;11841;49.368;20.962;2023-10-19T14:29:31;9.57;;;5.13;;
23338;SDS011;11841;49.368;20.962;2023-10-19T14:32:17;13.27;;;7.93;;
23338;SDS011;11841;49.368;20.962;2023-10-19T14:35:02;7.75;;;6.82;;
23338;SDS011;11841;49.368;20.962;2023-10-19T14:37:52;8.98;;;6.25;;
23338;SDS011;11841;49.368;20.962;2023-10-19T14:40:44;15.00;;;10.75;;
23338;SDS011;11841;49.368;20.962;2023-10-19T14:43:33;12.55;;;9.07;;
23338;SDS011;11841;49.368;20.962;2023-10-19T14:46:18;11.30;;;8.40;;
23338;SDS011;11841;49.368;20.962;2023-10-19T14:49:04;13.98;;;8.90;;
23338;SDS011;11841;49.368;20.962;2023-10-19T14:51:49;16.92;;;10.80;;
23338;SDS011;11841;49.368;20.962;2023-10-19T14:54:35;20.23;;;10.30;;
23338;SDS011;11841;49.368;20.962;2023-10-19T14:57:20;24.02;;;12.85;;
23338;SDS011;11841;49.368;20.962;2023-10-19T15:00:06;34.60;;;15.30;;
23338;SDS011;11841;49.368;20.962;2023-10-19T15:03:18;26.27;;;13.55;;
23338;SDS011;11841;49.368;20.962;2023-10-19T15:06:04;35.08;;;17.92;;
23338;SDS011;11841;49.368;20.962;2023-10-19T15:08:51;20.20;;;11.23;;
23338;SDS011;11841;49.368;20.962;2023-10-19T15:11:37;20.65;;;11.40;;
23338;SDS011;11841;49.368;20.962;2023-10-19T15:14:22;23.02;;;9.27;;
23338;SDS011;11841;49.368;20.962;2023-10-19T15:17:08;17.15;;;11.00;;
23338;SDS011;11841;49.368;20.962;2023-10-19T15:19:53;8.50;;;5.40;;
23338;SDS011;11841;49.368;20.962;2023-10-19T15:22:39;16.55;;;10.02;;
23338;SDS011;11841;49.368;20.962;2023-10-19T15:25:25;24.83;;;13.75;;
23338;SDS011;11841;49.368;20.962;2023-10-19T15:28:11;26.02;;;14.93;;
23338;SDS011;11841;49.368;20.962;2023-10-19T15:30:56;19.10;;;10.25;;
23338;SDS011;11841;49.368;20.962;2023-10-19T15:33:42;19.05;;;10.55;;
23338;SDS011;11841;49.368;20.962;2023-10-19T15:36:28;10.98;;;6.00;;
23338;SDS011;11841;49.368;20.962;2023-10-19T15:39:13;7.35;;;4.22;;
23338;SDS011;11841;49.368;20.962;2023-10-19T15:41:58;10.35;;;5.30;;
23338;SDS011;11841;49.368;20.962;2023-10-19T15:44:44;10.60;;;6.85;;
23338;SDS011;11841;49.368;20.962;2023-10-19T15:47:30;7.88;;;5.35;;
23338;SDS011;11841;49.368;20.962;2023-10-19T15:50:15;8.35;;;5.78;;
23338;SDS011;11841;49.368;20.962;2023-10-19T15:53:02;7.47;;;4.97;;
23338;SDS011;11841;49.368;20.962;2023-10-19T15:55:48;8.18;;;5.22;;
23338;SDS011;11841;49.368;20.962;2023-10-19T15:58:34;12.52;;;6.13;;
23338;SDS011;11841;49.368;20.962;2023-10-19T16:01:19;16.42;;;7.78;;
23338;SDS011;11841;49.368;20.962;2023-10-19T16:04:05;14.38;;;8.60;;
23338;SDS011;11841;49.368;20.962;2023-10-19T16:06:50;23.25;;;12.00;;
23338;SDS011;11841;49.368;20.962;2023-10-19T16:09:36;23.17;;;12.80;;
23338;SDS011;11841;49.368;20.962;2023-10-19T16:12:21;13.10;;;8.50;;
23338;SDS011;11841;49.368;20.962;2023-10-19T16:15:08;14.80;;;9.00;;
23338;SDS011;11841;49.368;20.962;2023-10-19T16:17:53;12.52;;;7.13;;
23338;SDS011;11841;49.368;20.962;2023-10-19T16:20:38;15.73;;;10.23;;
23338;SDS011;11841;49.368;20.962;2023-10-19T16:23:24;10.27;;;7.15;;
23338;SDS011;11841;49.368;20.962;2023-10-19T16:26:10;12.98;;;7.00;;
23338;SDS011;11841;49.368;20.962;2023-10-19T16:28:55;16.63;;;11.88;;
23338;SDS011;11841;49.368;20.962;2023-10-19T16:31:41;12.18;;;6.70;;
23338;SDS011;11841;49.368;20.962;2023-10-19T16:34:28;9.43;;;5.55;;
23338;SDS011;11841;49.368;20.962;2023-10-19T16:37:13;11.00;;;6.50;;
23338;SDS011;11841;49.368;20.962;2023-10-19T16:39:59;7.10;;;5.30;;
23338;SDS011;11841;49.368;20.962;2023-10-19T16:42:45;8.85;;;6.22;;
23338;SDS011;11841;49.368;20.962;2023-10-19T16:45:31;10.02;;;5.80;;